Weather observations for the past three days for
Blairsville Airport
Metric (Imperial)
Date Time (edt) Wind (kph) Vis. (km) Weather Sky Cond. Temperature (ºC) Relative Humidity Wind Chill (°C) Heat Index (°C) Pressure Precipitation (cm)
Air Dwpt 6 hour altimeter (cm) sea level (mb) 1 hr 3 hr 6 hr
Max. Min.
07 17:15 NW 9 16.09 Overcast SCT016 SCT024 OVC034 14.7 10.8 78% 76.05 0.0
07 16:55 NW 17 16.09 Overcast SCT016 BKN025 OVC034 15.1 11.4 79% 76.02 0.0
07 16:35 NW 13 16.09 Overcast BKN020 BKN028 OVC036 15.5 11.4 77% 76 0.0
07 16:15 N 6 16.09 Overcast BKN020 BKN024 OVC031 15.9 11.9 77% 76 0.0
07 15:55 NW 9 16.09 Overcast BKN020 BKN029 OVC037 16.2 12.7 80% 76 0.0
07 15:35 NW 6 16.09 Overcast BKN024 OVC031 16.2 12.8 80% 76 0.0
07 15:15 NW 6 16.09 Overcast BKN017 OVC024 16.1 12.5 79% 76 0.0
07 14:55 NW 6 16.09 Overcast BKN019 OVC024 16.1 12.8 81% 76 0.0
07 14:35 W 9 11.27 Overcast BKN019 BKN024 OVC043 16.8 13.2 79% 76.02 0.0
07 14:15 W 9 16.09 Overcast BKN018 BKN022 OVC043 16.3 12.4 78% 76.02 0.0
07 13:55 NW 6 16.09 Overcast SCT009 BKN016 OVC042 15.9 12.8 19.2 14.4 82% 76.02 0.0 0.2
07 13:35 N 9 16.09 Overcast BKN009 OVC013 14.8 13.1 90% 76.05 0.0
07 13:15 NW 9 16.09 Overcast BKN009 OVC016 14.6 12.9 90% 76.07 0.0
07 12:55 NW 13 16.09 Overcast SCT009 OVC016 15.8 13.8 88% 76.02 0.0 0.03
07 12:35 NW 11 16.09 Overcast BKN018 BKN025 OVC043 17.5 14.3 82% 76 0.0
07 12:15 W 13 16.09 Mostly Cloudy SCT014 SCT021 BKN043 18.7 14.6 77% 75.95 0.0
07 11:55 W 13 16.09 Mostly Cloudy SCT015 BKN022 BKN031 18.3 15.2 82% 75.97 0.0
07 11:35 W 13 16.09 Overcast SCT011 BKN022 OVC031 18.9 16.2 84% 75.97 0.0
07 11:15 NW 9 16.09 Overcast SCT011 BKN017 OVC032 17.6 15.6 88% 75.95 0.0
07 10:55 NW 6 16.09 Overcast SCT009 BKN022 OVC031 17 15.8 93% 75.97 0.0 0.18
07 10:35 W 9 16.09 Overcast SCT011 BKN015 OVC022 16.5 16 97% 75.97 0.0
07 10:15 Calm 16.09 Light Rain OVC015 16.4 15.6 95% 76 0.0
07 09:55 W 6 16.09 Overcast BKN008 BKN012 OVC017 16.4 15.3 93% 75.97 0.0
07 09:35 Calm 16.09 Overcast BKN004 OVC011 16.5 15.8 96% 75.92 0.0
07 09:15 N 6 16.09 Overcast BKN004 BKN017 OVC120 16 0 0% 75.9 0.0
07 08:55 Calm 11.27 Light Rain SCT006 SCT027 BKN085 15 0 0% 75.9 0.0 0.18
07 08:35 Calm 6.44 Rain SCT012 BKN050 OVC110 15 0 0% 75.95 0.0 0.13
07 08:15 Calm 11.27 Light Rain SCT005 BKN013 OVC110 15 0 0% 75.97 0.0 0.08
07 07:55 W 6 6.44 Rain SCT005 BKN016 OVC095 15 0 15.6 14.8 0% 75.95 0.0 0.15 1.19
07 07:35 Calm 8.05 Light Rain SCT005 BKN011 OVC095 15 0 0% 75.92 0.0 0.05
07 06:55 Calm 11.27 Light Rain BKN003 OVC010 15 0 0% 75.92 0.0 0.36
07 06:35 E 6 5.63 Rain Fog/Mist BKN003 OVC012 15 0 0% 75.92 0.0 0.3
07 06:15 N 6 11.27 Heavy Rain BKN003 OVC018 15 0 0% 76.02 0.0 0.05
07 05:55 Calm 11.27 Light Rain SCT003 BKN010 OVC018 15 0 0% 75.92 0.0 0.13
07 05:35 Calm 11.27 Light Rain BKN003 OVC018 15 0 0% 75.95 0.0
07 05:15 Calm 2.82 Light Rain Fog/Mist BKN003 BKN030 OVC070 15 0 0% 75.9 0.0
07 04:55 E 7 6.44 Light Rain SCT005 SCT042 OVC070 15 0 0% 75.9 0.0 0.23 0.56
07 04:35 NW 6 8.05 Heavy Rain SCT038 BKN070 OVC080 15 0 0% 75.95 0.0 0.08
07 04:15 Calm 8.05 Overcast with Haze SCT002 BKN070 OVC080 15 0 0% 75.87 0.0
07 03:55 NE 6 3.22 Light Rain Fog/Mist SCT002 BKN070 OVC090 15 0 0% 75.92 0.0 0.03
07 03:35 Calm 8.05 Light Rain SCT065 BKN100 15 0 0% 75.92 0.0 0.03
07 03:15 Calm 16.09 Mostly Cloudy SCT049 SCT075 BKN110 15 15 100% 75.95 0.0 0.03
07 02:55 E 7 8.05 Rain Fog/Mist SCT046 BKN050 OVC065 15.3 15.3 100% 75.97 0.0 0.28
07 02:35 NW 6 16.09 Light Rain SCT049 SCT065 OVC070 15.4 15.4 100% 76.02 0.0 0.1
07 02:15 S 9 11.27 Rain SCT047 BKN055 OVC100 15 0 0% 76 0.0 0.05
07 01:55 SE 6 8.05 Light Rain SCT022 BKN055 OVC075 16 0 16.3 15.6 0% 76.02 0.0 0.58 1.68
07 01:35 W 6 6.44 Heavy Rain SCT005 BKN060 OVC070 16 0 0% 76.07 0.0 0.15
07 01:15 Calm 11.27 Light Rain BKN003 BKN017 OVC075 16 0 0% 76.07 0.0 0.05
07 00:35 E 6 16.09 Light Rain BKN003 BKN016 OVC065 16 0 0% 76.1 0.0 0.51
07 00:15 Calm 11.27 Thunderstorm Light Rain in Vicinity SCT003 BKN050 OVC065 16 0 0% 76.15 0.0 0.48
06 23:55 W 6 16.09 Thunderstorm in Vicinity BKN003 BKN007 OVC050 16 0 0% 76.17 0.0
06 23:35 SE 6 16.09 Overcast BKN003 OVC050 16 0 0% 76.05 0.0
06 23:15 N 6 11.27 Overcast SCT001 OVC050 16 0 0% 76.05 0.0
06 22:55 Calm 16.09 Light Rain OVC050 16 0 0% 76.1 0.0 0.03 0.15
06 22:35 Calm 16.09 Light Drizzle BKN055 BKN065 OVC075 16 0 0% 76.1 0.0 0.03
06 21:55 Calm 16.09 Overcast SCT004 OVC065 16 0 0% 76.1 0.0 0.03
06 21:35 SE 6 16.09 Overcast SCT004 BKN075 OVC090 16 0 0% 76.1 0.0 0.03
06 21:15 SE 7 16.09 Thunderstorm Light Rain in Vicinity SCT002 BKN031 OVC070 16 0 0% 76.12 0.0 0.03
06 20:55 NE 6 8.05 Rain SCT002 BKN036 OVC070 16 0 0% 76.17 0.0 0.08
06 20:35 Calm 16.09 Overcast SCT004 BKN038 OVC075 16 0 0% 76.12 0.0 0.05
06 20:15 E 6 8.05 Light Rain Fog/Mist SCT008 BKN040 OVC080 16 16 100% 76.12 0.0 0.03
06 19:55 SW 7 5.63 Thunderstorm Rain in Vicinity Fog/Mist SCT020 BKN042 OVC090 16.2 16.2 20.6 16.2 100% 76.15 0.0 0.66 3.71
06 19:35 W 9 11.27 Thunderstorm Rain in Vicinity OVC041 16.3 16.3 100% 76.12 0.0 0.05
06 19:15 E 7 11.27 Thunderstorm Light Rain in Vicinity OVC043 16.5 16.4 99% 76.05 0.0 0.03
06 18:55 E 6 8.05 Light Rain Fog/Mist SCT040 OVC045 16.6 16.3 98% 76.1 0.0 0.18
06 18:35 SE 7 16.09 Overcast BKN044 OVC050 16.7 16.6 99% 76.12 0.0 0.08
06 18:15 Calm 4.83 Thunderstorm Rain in Vicinity Fog/Mist SCT044 OVC050 16.7 16.5 99% 76.15 0.0 0.05
06 17:55 Calm 16.09 Thunderstorm Light Rain in Vicinity SCT042 BKN050 OVC060 16.6 16.6 100% 76.1 0.0 1.65
06 17:35 S 7 4.02 Rain Fog/Mist SCT004 BKN040 OVC048 16.6 16.5 99% 76.12 0.0 1.63
06 17:15 S 9 1.21 Heavy Rain Fog/Mist BKN004 OVC009 16.5 16.2 98% 76.12 0.0 1.07
06 16:55 NE 11 1.21 Heavy Rain Fog/Mist BKN004 BKN011 OVC016 17.6 16.7 95% 76.05 0.0 1.14 1.14
06 16:35 NW 11 8.05 Thunderstorm Rain Fog/Mist OVC017 18.8 18.1 96% 76.1 0.0
06 16:15 Calm 16.09 Light Rain OVC019 19.9 17.3 85% 76.07 0.0
06 15:55 Calm 16.09 Thunderstorm in Vicinity OVC019 19.7 18.1 91% 76.1 0.0
06 15:35 Calm 16.09 Thunderstorm Light Rain in Vicinity OVC019 20.2 17.8 86% 76.12 0.0
06 15:15 SW 7 16.09 Light Rain OVC019 20.3 17.3 83% 76.12 0.0
06 14:55 SW 6 16.09 Overcast OVC019 20.5 17.3 82% 76.17 0.0
06 14:35 S 7 16.09 Thunderstorm in Vicinity OVC019 19.9 17.1 84% 76.2 0.0
06 14:15 Calm 16.09 Overcast OVC017 19.4 17.2 87% 76.23 0.0
06 13:55 W 7 16.09 Overcast OVC019 19.3 16.8 19.8 16.9 86% 76.23 0.0 0.69
06 13:35 SW 7 16.09 Overcast SCT014 OVC019 19.7 17.2 86% 76.2 0.0
06 13:15 SW 15 16.09 Overcast BKN014 OVC020 19.5 17 86% 76.17 0.0
06 12:55 SW 11 16.09 Overcast SCT010 BKN020 OVC028 19.3 16.8 86% 76.17 0.0
06 12:35 SW 11 16.09 Partly Cloudy SCT010 SCT021 SCT120 19.6 17.5 88% 76.23 0.0
06 12:15 Calm 16.09 Partly Cloudy SCT019 SCT032 18.2 17 93% 76.2 0.0
06 11:55 E 7 11.27 Light Rain Fog/Mist BKN017 OVC023 17.2 16.6 96% 76.23 0.0 0.48
06 11:35 N 6 2.01 Heavy Rain Fog/Mist BKN017 OVC024 17 16.5 97% 76.28 0.0 0.46
06 11:15 W 6 4.02 Thunderstorm Light Rain in Vicinity Fog/Mist SCT022 BKN038 OVC050 17.1 16.5 96% 76.25 0.0 0.15
06 10:55 W 7 4.02 Thunderstorm Heavy Rain Fog/Mist BKN018 BKN025 OVC050 17.1 15.8 92% 76.23 0.0 0.2 0.2
06 10:35 Calm 11.27 Thunderstorm Light Rain in Vicinity OVC020 18.4 15.4 83% 76.2 0.0
06 10:15 SW 15 16.09 Light Rain OVC020 18.8 15.2 80% 76.15 0.0
06 09:55 SW 7 G 28 16.09 Overcast OVC020 18.8 14.8 78% 76.17 0.0
06 09:35 SW 19 G 28 16.09 Overcast BKN022 OVC090 19 14.6 76% 76.15 0.0
06 09:15 W 17 16.09 Overcast SCT022 OVC090 19 14.5 75% 76.15 0.0
06 08:55 SW 11 16.09 Overcast SCT065 SCT075 OVC090 18.8 13.8 73% 76.12 0.0
06 08:35 SW 17 G 26 16.09 Mostly Cloudy SCT065 BKN075 BKN090 18.6 13.3 71% 76.12 0.0
06 08:15 W 15 16.09 Mostly Cloudy BKN090 18.8 13.1 70% 76.12 0.0
06 07:55 SW 9 16.09 Overcast SCT036 OVC090 18.6 12.8 19.7 18 69% 76.12 0.0
06 07:35 SW 13 16.09 Mostly Cloudy SCT034 BKN080 BKN110 18.4 12.3 68% 76.12 0.0
06 07:15 SW 15 16.09 Mostly Cloudy SCT031 BKN080 BKN095 18.6 12 66% 76.07 0.0
06 06:55 SW 7 16.09 Overcast SCT031 OVC080 18.5 12.1 66% 76.1 0.0
06 06:35 SW 9 16.09 Overcast BKN031 BKN045 OVC075 18.4 12.1 67% 76.1 0.0
06 06:15 SW 7 16.09 Overcast SCT035 SCT043 OVC065 18.5 11.9 66% 76.07 0.0
06 05:55 S 9 16.09 Mostly Cloudy SCT035 SCT055 BKN065 18.4 11.8 66% 76.05 0.0
06 05:35 SW 11 16.09 Mostly Cloudy SCT037 BKN065 18.8 11.6 63% 76.05 0.0
06 05:15 S 15 16.09 Mostly Cloudy BKN037 BKN065 18.8 11.7 64% 76.02 0.0
06 04:55 SW 11 16.09 Partly Cloudy SCT060 18.4 11.6 65% 76.02 0.0
06 04:35 SW 7 16.09 Partly Cloudy SCT060 18.8 11.5 63% 76.02 0.0
06 04:15 SW 13 16.09 Mostly Cloudy BKN050 18.9 11.1 61% 76.05 0.0
06 03:55 SW 19 16.09 Mostly Cloudy SCT050 BKN070 18.8 10.8 60% 76.05 0.0
06 03:35 S 13 16.09 Overcast SCT040 BKN060 OVC070 19.1 10.5 58% 76.05 0.0
06 03:15 SW 17 16.09 Overcast BKN040 BKN047 OVC070 18.9 10.2 57% 76.05 0.0
06 02:55 SW 13 16.09 Overcast OVC070 19.4 10 55% 76.05 0.0
06 02:35 SW 17 G 28 16.09 Overcast SCT042 OVC070 19.5 9.7 53% 76.1 0.0
06 02:15 SW 17 16.09 Overcast BKN044 BKN050 OVC070 19.6 9.3 52% 76.1 0.0
06 01:55 SW 11 16.09 Overcast OVC046 19.6 8.9 20.4 18.1 50% 76.12 0.0
06 01:35 SW 13 16.09 Overcast OVC046 19.7 7.9 47% 76.12 0.0
06 01:15 SW 13 16.09 Overcast BKN048 BKN055 OVC065 20 7.3 44% 76.12 0.0
06 00:55 SW 15 16.09 Overcast BKN050 OVC065 20 6.9 43% 76.12 0.0
06 00:35 S 7 16.09 Overcast BKN050 OVC060 20.1 7.7 45% 76.12 0.0
06 00:15 S 13 16.09 Overcast OVC050 20.1 7.1 43% 76.12 0.0
05 23:55 SW 13 16.09 Overcast BKN060 OVC065 19.6 7.7 46% 76.12 0.0
05 23:35 Calm 16.09 Overcast OVC060 20.1 7.2 43% 76.15 0.0
05 23:15 SW 11 16.09 Overcast OVC070 20 7.8 45% 76.17 0.0
05 22:55 S 7 16.09 Overcast OVC070 20 8.2 47% 76.15 0.0
05 22:35 S 11 16.09 Overcast OVC070 20 8.4 47% 76.15 0.0
05 22:15 SE 6 16.09 Overcast OVC070 20.1 7.9 45% 76.12 0.0
05 21:55 SE 13 16.09 Overcast BKN070 OVC080 19.8 7.7 46% 76.1 0.0
05 21:15 S 6 16.09 Fair CLR 19 7.6 48% 76.1 0.0
05 20:55 SE 7 16.09 Partly Cloudy SCT110 19.1 8.3 50% 76.1 0.0
05 20:35 S 9 16.09 Overcast OVC110 18.4 9.4 56% 76.12 0.0
05 20:15 SE 6 16.09 Mostly Cloudy BKN110 18.6 9.4 55% 76.12 0.0
05 19:55 SE 6 16.09 Mostly Cloudy BKN110 19.2 9.1 24.5 18.7 52% 76.1 0.0
05 19:35 E 9 16.09 Light Rain OVC110 18.9 9.9 56% 76.07 0.0
05 19:15 SE 9 16.09 Overcast SCT040 SCT050 OVC100 20.1 8.6 48% 76.1 0.0
05 18:55 S 15 16.09 Light Rain OVC100 20.9 7.7 43% 76.1 0.0
05 18:35 SW 9 16.09 Overcast OVC100 21.5 5.9 36% 76.12 0.0
05 18:15 SW 13 G 28 16.09 Partly Cloudy SCT110 22 5.5 34% 76.12 0.0
05 17:55 S 19 16.09 Fair CLR 22.6 5.8 34% 76.12 0.0
05 17:35 S 19 16.09 Fair CLR 23.1 7.7 37% 76.07 0.0
05 17:15 S 22 G 31 16.09 Fair CLR 23.7 7.5 35% 76.1 0.0
05 16:55 S 20 G 30 16.09 Fair CLR 23.9 7.8 36% 25 76.1 0.0
05 16:35 S 20 G 26 16.09 Partly Cloudy SCT070 23.8 7.2 35% 76.1 0.0
05 16:15 S 22 G 30 11.27 Partly Cloudy SCT070 23.7 7.7 36% 76.12 0.0
05 15:55 SW 20 G 28 16.09 Fair CLR 24.1 8 36% 25 76.12 0.0
05 15:35 S 15 G 35 16.09 Fair CLR 23.7 6.6 33% 76.15 0.0
05 15:15 S 19 16.09 Fair CLR 23.9 7.9 36% 25 76.17 0.0
05 14:55 S 15 G 28 16.09 Fair CLR 23.7 8.3 37% 76.17 0.0
05 14:35 S 17 16.09 Fair CLR 23.1 6.7 35% 76.2 0.0
05 14:15 S 9 16.09 Fair CLR 23.3 5.7 32% 76.23 0.0
05 13:55 S 17 16.09 Fair CLR 22.9 5.8 23.4 7.7 33% 76.23 0.0
05 13:35 SW 17 G 28 16.09 Fair CLR 23.1 5.4 32% 76.25 0.0
05 13:15 S 19 G 33 16.09 Fair CLR 22.5 4.4 31% 76.28 0.0
05 12:55 S 19 16.09 Fair CLR 22.3 4.2 31% 76.25 0.0
05 12:35 S 17 G 31 16.09 Fair CLR 21.9 7.3 39% 76.3 0.0
05 12:15 SW 15 16.09 Fair CLR 21.8 7.6 40% 76.3 0.0
05 11:55 S 13 16.09 Fair CLR 21.9 7.1 39% 76.3 0.0
05 11:15 S 19 G 30 16.09 Partly Cloudy SCT060 21.3 7 40% 76.33 0.0
05 10:55 SW 13 16.09 Fair CLR 20.6 7.4 43% 76.3 0.0
05 10:35 SE 6 16.09 Fair CLR 19.8 8 47% 76.3 0.0
05 10:15 E 6 16.09 Fair CLR 19.1 8.9 52% 76.33 0.0
05 09:55 NE 6 16.09 Fair CLR 17.4 9 58% 76.33 0.0
05 09:35 Calm 16.09 Fair CLR 15.4 8.5 64% 76.3 0.0
05 09:15 Calm 16.09 Fair CLR 14 8.6 70% 76.28 0.0
05 08:55 Calm 16.09 Fair CLR 12.3 8.1 76% 76.28 0.0
05 08:35 Calm 16.09 Fair CLR 11.2 8.3 83% 76.25 0.0
05 08:15 Calm 16.09 Fair CLR 9 7.9 93% 76.25 0.0
05 07:55 Calm 11.27 Fair CLR 7.7 7.3 8.8 4.6 97% 76.25 0.0
05 07:35 Calm 11.27 Fog/Mist CLR 6.3 6.2 99% 76.23 0.0
05 07:15 Calm 8.05 Fair with Haze CLR 6 0 0% 76.23 0.0
05 06:55 Calm 6.44 Fog/Mist CLR 4.8 4.6 99% 76.23 0.0
05 06:35 Calm 11.27 Fog/Mist CLR 5.6 5.5 99% 76.2 0.0
05 06:15 Calm 8.05 Fog/Mist CLR 5.6 5.6 100% 76.23 0.0
05 05:55 Calm 11.27 Fair CLR 5.7 5.7 100% 76.2 0.0
05 05:35 Calm 11.27 Fair CLR 6 6 100% 76.2 0.0
05 05:15 Calm 8.05 Fog/Mist CLR 6 6 100% 76.23 0.0
05 04:55 Calm 11.27 Fair CLR 6.5 6.4 99% 76.23 0.0
05 04:35 Calm 16.09 Fair CLR 6.6 6.2 97% 76.23 0.0
05 04:15 Calm 16.09 Fair CLR 6.9 6.6 98% 76.23 0.0
05 03:55 Calm 16.09 Fair CLR 7.2 6.7 97% 76.23 0.0
05 03:35 Calm 16.09 Fair CLR 7.4 6.9 97% 76.23 0.0
05 03:15 Calm 16.09 Fair CLR 7.7 6.9 95% 76.23 0.0
05 02:55 Calm 16.09 Fair CLR 7.9 6.9 93% 76.23 0.0
05 02:35 Calm 16.09 Fair CLR 8 7.2 95% 76.2 0.0
05 02:15 Calm 16.09 Fair CLR 8.6 7.2 91% 76.23 0.0
05 01:55 Calm 16.09 Fair CLR 8.3 7.6 20.3 8 95% 76.23 0.0
05 01:35 Calm 16.09 Fair CLR 8.4 7.5 94% 76.25 0.0
05 01:15 Calm 16.09 Fair CLR 9 7.7 92% 76.23 0.0
05 00:55 Calm 16.09 Fair CLR 8.9 7.4 90% 76.23 0.0
05 00:35 Calm 16.09 Fair CLR 9.6 7.6 87% 76.23 0.0
05 00:15 Calm 16.09 Fair CLR 10.4 7.7 84% 76.23 0.0
04 23:55 Calm 16.09 Fair CLR 10.7 7.9 83% 76.23 0.0
04 23:35 Calm 16.09 Fair CLR 10.5 8.1 85% 76.25 0.0
04 23:15 Calm 16.09 Fair CLR 11.7 8 78% 76.25 0.0
04 22:55 Calm 16.09 Fair CLR 12.3 8 75% 76.25 0.0
04 22:35 Calm 16.09 Fair CLR 12.6 7.8 73% 76.25 0.0
04 22:15 Calm 16.09 Fair CLR 13.6 7.7 68% 76.23 0.0
04 21:55 E 6 16.09 Fair CLR 14 7.5 65% 76.23 0.0
04 21:35 Calm 16.09 Fair CLR 14.6 7.4 62% 76.2 0.0
04 21:15 S 6 16.09 Fair CLR 15.6 7.1 57% 76.2 0.0
04 20:55 S 6 16.09 Fair CLR 16.5 7 54% 76.17 0.0
04 20:35 Calm 16.09 Fair CLR 18.6 6.3 45% 76.17 0.0
04 20:15 S 7 16.09 Fair CLR 19.6 6.3 42% 76.17 0.0
04 19:55 S 13 16.09 Fair CLR 20.3 6.5 24.1 20.2 41% 76.17 0.0
04 19:35 SW 11 16.09 Fair CLR 20.9 7 41% 76.15 0.0
04 19:15 S 11 16.09 Fair CLR 21.2 7 40% 76.12 0.0
04 18:55 SW 11 16.09 Fair CLR 22.3 6.5 36% 76.12 0.0
04 18:35 S 15 16.09 Fair CLR 22.5 6.9 37% 76.15 0.0
04 18:15 SW 13 16.09 Fair CLR 22.9 7.5 37% 76.12 0.0
04 17:55 SW 9 16.09 Fair CLR 23 6.2 34% 76.12 0.0
04 17:35 W 7 16.09 Fair CLR 23.6 6.4 33% 76.1 0.0
Date Time (edt) Wind (kph) Vis. (km) Weather Sky Cond. Air Dwpt Max. Min. Relative Humidity Wind Chill (°C) Heat Index (°C) altimeter (cm) sea level (mb) 1 hr 3 hr 6 hr
6 hour
Temperature (ºC) Pressure Precipitation (cm)